sensor_id;sensor_type;location;lat;lon;timestamp;P1;durP1;ratioP1;P2;durP2;ratioP2
12675;SDS011;63820;65.654;21.944;2023-02-15T00:02:14;5.73;;;2.20;;
12675;SDS011;63820;65.654;21.944;2023-02-15T00:04:59;4.90;;;2.30;;
12675;SDS011;63820;65.654;21.944;2023-02-15T00:07:43;3.70;;;2.20;;
12675;SDS011;63820;65.654;21.944;2023-02-15T00:10:27;3.40;;;2.10;;
12675;SDS011;63820;65.654;21.944;2023-02-15T00:13:11;4.50;;;2.23;;
12675;SDS011;63820;65.654;21.944;2023-02-15T00:16:00;4.83;;;2.13;;
12675;SDS011;63820;65.654;21.944;2023-02-15T00:18:47;4.27;;;2.37;;
12675;SDS011;63820;65.654;21.944;2023-02-15T00:21:32;2.97;;;2.30;;
12675;SDS011;63820;65.654;21.944;2023-02-15T00:24:17;6.30;;;2.53;;
12675;SDS011;63820;65.654;21.944;2023-02-15T00:27:02;2.63;;;2.10;;
12675;SDS011;63820;65.654;21.944;2023-02-15T00:29:47;3.83;;;1.83;;
12675;SDS011;63820;65.654;21.944;2023-02-15T00:32:31;3.27;;;2.00;;
12675;SDS011;63820;65.654;21.944;2023-02-15T00:35:15;3.07;;;2.00;;
12675;SDS011;63820;65.654;21.944;2023-02-15T00:38:00;5.03;;;2.13;;
12675;SDS011;63820;65.654;21.944;2023-02-15T00:40:44;6.17;;;2.13;;
12675;SDS011;63820;65.654;21.944;2023-02-15T00:43:36;3.27;;;2.07;;
12675;SDS011;63820;65.654;21.944;2023-02-15T00:46:20;4.20;;;1.90;;
12675;SDS011;63820;65.654;21.944;2023-02-15T00:49:05;2.93;;;1.97;;
12675;SDS011;63820;65.654;21.944;2023-02-15T00:51:49;2.30;;;1.60;;
12675;SDS011;63820;65.654;21.944;2023-02-15T00:54:33;2.93;;;1.73;;
12675;SDS011;63820;65.654;21.944;2023-02-15T00:57:18;3.30;;;1.90;;
12675;SDS011;63820;65.654;21.944;2023-02-15T01:00:02;3.37;;;2.03;;
12675;SDS011;63820;65.654;21.944;2023-02-15T01:02:46;3.73;;;2.00;;
12675;SDS011;63820;65.654;21.944;2023-02-15T01:05:31;2.20;;;1.50;;
12675;SDS011;63820;65.654;21.944;2023-02-15T01:08:16;2.93;;;2.07;;
12675;SDS011;63820;65.654;21.944;2023-02-15T01:11:08;4.03;;;1.70;;
12675;SDS011;63820;65.654;21.944;2023-02-15T01:13:56;3.10;;;1.90;;
12675;SDS011;63820;65.654;21.944;2023-02-15T01:16:41;4.93;;;1.90;;
12675;SDS011;63820;65.654;21.944;2023-02-15T01:19:26;4.00;;;2.20;;
12675;SDS011;63820;65.654;21.944;2023-02-15T01:22:10;5.73;;;2.10;;
12675;SDS011;63820;65.654;21.944;2023-02-15T01:24:53;4.97;;;2.20;;
12675;SDS011;63820;65.654;21.944;2023-02-15T01:27:37;5.17;;;2.67;;
12675;SDS011;63820;65.654;21.944;2023-02-15T01:30:21;7.97;;;3.27;;
12675;SDS011;63820;65.654;21.944;2023-02-15T01:33:05;6.10;;;3.40;;
12675;SDS011;63820;65.654;21.944;2023-02-15T01:35:55;5.57;;;3.20;;
12675;SDS011;63820;65.654;21.944;2023-02-15T01:38:40;4.57;;;2.70;;
12675;SDS011;63820;65.654;21.944;2023-02-15T01:41:25;7.90;;;3.03;;
12675;SDS011;63820;65.654;21.944;2023-02-15T01:47:43;5.77;;;2.50;;
12675;SDS011;63820;65.654;21.944;2023-02-15T01:50:34;5.37;;;3.07;;
12675;SDS011;63820;65.654;21.944;2023-02-15T01:53:27;3.93;;;2.50;;
12675;SDS011;63820;65.654;21.944;2023-02-15T01:56:28;6.03;;;2.83;;
12675;SDS011;63820;65.654;21.944;2023-02-15T01:59:16;3.93;;;2.47;;
12675;SDS011;63820;65.654;21.944;2023-02-15T02:02:04;6.40;;;2.60;;
12675;SDS011;63820;65.654;21.944;2023-02-15T02:04:54;2.87;;;2.00;;
12675;SDS011;63820;65.654;21.944;2023-02-15T02:07:43;4.37;;;2.43;;
12675;SDS011;63820;65.654;21.944;2023-02-15T02:10:29;4.27;;;2.23;;
12675;SDS011;63820;65.654;21.944;2023-02-15T02:13:14;3.87;;;1.90;;
12675;SDS011;63820;65.654;21.944;2023-02-15T02:35:18;2.77;;;1.90;;
12675;SDS011;63820;65.654;21.944;2023-02-15T02:45:08;5.47;;;1.90;;
12675;SDS011;63820;65.654;21.944;2023-02-15T02:48:13;1.93;;;1.53;;
12675;SDS011;63820;65.654;21.944;2023-02-15T02:51:02;3.90;;;2.10;;
12675;SDS011;63820;65.654;21.944;2023-02-15T02:53:48;3.00;;;1.80;;
12675;SDS011;63820;65.654;21.944;2023-02-15T02:56:41;3.07;;;1.80;;
12675;SDS011;63820;65.654;21.944;2023-02-15T02:59:33;4.50;;;1.80;;
12675;SDS011;63820;65.654;21.944;2023-02-15T03:02:26;3.03;;;1.80;;
12675;SDS011;63820;65.654;21.944;2023-02-15T03:05:16;3.17;;;1.80;;
12675;SDS011;63820;65.654;21.944;2023-02-15T03:08:05;4.30;;;1.70;;
12675;SDS011;63820;65.654;21.944;2023-02-15T03:10:54;2.20;;;1.47;;
12675;SDS011;63820;65.654;21.944;2023-02-15T03:13:43;3.27;;;1.70;;
12675;SDS011;63820;65.654;21.944;2023-02-15T03:16:30;3.37;;;1.77;;
12675;SDS011;63820;65.654;21.944;2023-02-15T03:22:06;1.83;;;1.57;;
12675;SDS011;63820;65.654;21.944;2023-02-15T03:25:14;3.03;;;1.77;;
12675;SDS011;63820;65.654;21.944;2023-02-15T03:28:05;4.10;;;1.50;;
12675;SDS011;63820;65.654;21.944;2023-02-15T03:30:53;3.13;;;1.60;;
12675;SDS011;63820;65.654;21.944;2023-02-15T03:33:44;2.70;;;1.43;;
12675;SDS011;63820;65.654;21.944;2023-02-15T03:36:36;5.00;;;1.70;;
12675;SDS011;63820;65.654;21.944;2023-02-15T03:42:19;4.40;;;2.20;;
12675;SDS011;63820;65.654;21.944;2023-02-15T03:45:14;4.37;;;2.67;;
12675;SDS011;63820;65.654;21.944;2023-02-15T03:48:02;4.70;;;2.60;;
12675;SDS011;63820;65.654;21.944;2023-02-15T03:50:49;5.10;;;2.60;;
12675;SDS011;63820;65.654;21.944;2023-02-15T03:53:54;4.17;;;2.67;;
12675;SDS011;63820;65.654;21.944;2023-02-15T03:56:41;5.17;;;2.60;;
12675;SDS011;63820;65.654;21.944;2023-02-15T03:59:45;5.77;;;2.73;;
12675;SDS011;63820;65.654;21.944;2023-02-15T04:06:01;3.77;;;2.00;;
12675;SDS011;63820;65.654;21.944;2023-02-15T04:08:46;2.73;;;2.10;;
12675;SDS011;63820;65.654;21.944;2023-02-15T04:11:49;4.30;;;2.20;;
12675;SDS011;63820;65.654;21.944;2023-02-15T04:14:33;3.27;;;2.20;;
12675;SDS011;63820;65.654;21.944;2023-02-15T04:17:36;2.70;;;1.70;;
12675;SDS011;63820;65.654;21.944;2023-02-15T04:20:21;3.27;;;1.87;;
12675;SDS011;63820;65.654;21.944;2023-02-15T04:23:24;3.53;;;2.30;;
12675;SDS011;63820;65.654;21.944;2023-02-15T04:26:27;2.50;;;1.80;;
12675;SDS011;63820;65.654;21.944;2023-02-15T04:29:11;4.47;;;2.20;;
12675;SDS011;63820;65.654;21.944;2023-02-15T04:31:56;4.87;;;2.50;;
12675;SDS011;63820;65.654;21.944;2023-02-15T04:34:41;5.80;;;3.20;;
12675;SDS011;63820;65.654;21.944;2023-02-15T04:37:25;5.63;;;2.87;;
12675;SDS011;63820;65.654;21.944;2023-02-15T04:40:11;4.20;;;2.50;;
12675;SDS011;63820;65.654;21.944;2023-02-15T04:42:56;6.10;;;2.40;;
12675;SDS011;63820;65.654;21.944;2023-02-15T04:45:40;5.77;;;2.60;;
12675;SDS011;63820;65.654;21.944;2023-02-15T04:48:24;8.07;;;2.90;;
12675;SDS011;63820;65.654;21.944;2023-02-15T04:51:08;6.40;;;2.60;;
12675;SDS011;63820;65.654;21.944;2023-02-15T04:53:53;5.20;;;3.00;;
12675;SDS011;63820;65.654;21.944;2023-02-15T04:56:37;3.27;;;2.10;;
12675;SDS011;63820;65.654;21.944;2023-02-15T04:59:23;4.67;;;2.80;;
12675;SDS011;63820;65.654;21.944;2023-02-15T05:02:07;4.07;;;1.90;;
12675;SDS011;63820;65.654;21.944;2023-02-15T05:04:52;4.03;;;2.20;;
12675;SDS011;63820;65.654;21.944;2023-02-15T05:07:36;5.30;;;2.10;;
12675;SDS011;63820;65.654;21.944;2023-02-15T05:10:20;4.17;;;2.63;;
12675;SDS011;63820;65.654;21.944;2023-02-15T05:13:05;9.00;;;3.10;;
12675;SDS011;63820;65.654;21.944;2023-02-15T05:15:49;6.70;;;3.63;;
12675;SDS011;63820;65.654;21.944;2023-02-15T05:18:34;7.70;;;3.40;;
12675;SDS011;63820;65.654;21.944;2023-02-15T05:21:19;9.37;;;3.30;;
12675;SDS011;63820;65.654;21.944;2023-02-15T05:24:03;7.50;;;3.33;;
12675;SDS011;63820;65.654;21.944;2023-02-15T05:27:10;5.13;;;2.80;;
12675;SDS011;63820;65.654;21.944;2023-02-15T05:30:13;5.03;;;2.47;;
12675;SDS011;63820;65.654;21.944;2023-02-15T05:32:58;4.47;;;2.33;;
12675;SDS011;63820;65.654;21.944;2023-02-15T05:35:42;5.50;;;2.70;;
12675;SDS011;63820;65.654;21.944;2023-02-15T05:38:26;5.33;;;2.53;;
12675;SDS011;63820;65.654;21.944;2023-02-15T05:41:10;4.80;;;2.50;;
12675;SDS011;63820;65.654;21.944;2023-02-15T05:43:55;4.57;;;2.10;;
12675;SDS011;63820;65.654;21.944;2023-02-15T05:46:40;5.40;;;2.83;;
12675;SDS011;63820;65.654;21.944;2023-02-15T05:49:24;5.27;;;2.60;;
12675;SDS011;63820;65.654;21.944;2023-02-15T05:52:09;7.17;;;3.57;;
12675;SDS011;63820;65.654;21.944;2023-02-15T05:54:52;5.13;;;2.90;;
12675;SDS011;63820;65.654;21.944;2023-02-15T05:57:38;4.77;;;2.67;;
12675;SDS011;63820;65.654;21.944;2023-02-15T06:00:22;7.53;;;2.67;;
12675;SDS011;63820;65.654;21.944;2023-02-15T06:03:06;6.30;;;3.30;;
12675;SDS011;63820;65.654;21.944;2023-02-15T06:05:50;7.50;;;3.23;;
12675;SDS011;63820;65.654;21.944;2023-02-15T06:08:35;5.23;;;3.10;;
12675;SDS011;63820;65.654;21.944;2023-02-15T06:11:20;6.27;;;3.20;;
12675;SDS011;63820;65.654;21.944;2023-02-15T06:14:05;8.10;;;2.97;;
12675;SDS011;63820;65.654;21.944;2023-02-15T06:16:49;8.00;;;3.83;;
12675;SDS011;63820;65.654;21.944;2023-02-15T06:19:33;10.43;;;4.47;;
12675;SDS011;63820;65.654;21.944;2023-02-15T06:22:17;12.87;;;4.50;;
12675;SDS011;63820;65.654;21.944;2023-02-15T06:25:01;14.13;;;5.40;;
12675;SDS011;63820;65.654;21.944;2023-02-15T06:27:46;11.17;;;5.10;;
12675;SDS011;63820;65.654;21.944;2023-02-15T06:30:30;11.37;;;4.40;;
12675;SDS011;63820;65.654;21.944;2023-02-15T06:33:14;9.77;;;4.27;;
12675;SDS011;63820;65.654;21.944;2023-02-15T06:35:58;11.47;;;4.57;;
12675;SDS011;63820;65.654;21.944;2023-02-15T06:38:42;9.43;;;4.40;;
12675;SDS011;63820;65.654;21.944;2023-02-15T06:41:26;13.07;;;5.47;;
12675;SDS011;63820;65.654;21.944;2023-02-15T06:44:10;10.47;;;5.37;;
12675;SDS011;63820;65.654;21.944;2023-02-15T06:46:55;8.60;;;4.83;;
12675;SDS011;63820;65.654;21.944;2023-02-15T06:49:39;10.17;;;4.97;;
12675;SDS011;63820;65.654;21.944;2023-02-15T06:52:23;15.70;;;5.70;;
12675;SDS011;63820;65.654;21.944;2023-02-15T06:55:08;13.53;;;5.37;;
12675;SDS011;63820;65.654;21.944;2023-02-15T06:57:52;11.27;;;4.83;;
12675;SDS011;63820;65.654;21.944;2023-02-15T07:00:36;12.33;;;4.70;;
12675;SDS011;63820;65.654;21.944;2023-02-15T07:03:20;9.67;;;4.20;;
12675;SDS011;63820;65.654;21.944;2023-02-15T07:06:04;9.60;;;3.97;;
12675;SDS011;63820;65.654;21.944;2023-02-15T07:08:51;10.80;;;4.27;;
12675;SDS011;63820;65.654;21.944;2023-02-15T07:11:35;8.63;;;4.17;;
12675;SDS011;63820;65.654;21.944;2023-02-15T07:14:38;12.53;;;4.40;;
12675;SDS011;63820;65.654;21.944;2023-02-15T07:17:24;10.97;;;4.27;;
12675;SDS011;63820;65.654;21.944;2023-02-15T07:20:13;12.57;;;5.40;;
12675;SDS011;63820;65.654;21.944;2023-02-15T07:23:02;10.00;;;4.93;;
12675;SDS011;63820;65.654;21.944;2023-02-15T07:25:47;7.00;;;4.30;;
12675;SDS011;63820;65.654;21.944;2023-02-15T07:28:31;9.10;;;4.70;;
12675;SDS011;63820;65.654;21.944;2023-02-15T07:31:16;11.03;;;4.93;;
12675;SDS011;63820;65.654;21.944;2023-02-15T07:34:00;9.83;;;4.97;;
12675;SDS011;63820;65.654;21.944;2023-02-15T07:36:44;13.77;;;5.27;;
12675;SDS011;63820;65.654;21.944;2023-02-15T07:39:29;9.57;;;4.47;;
12675;SDS011;63820;65.654;21.944;2023-02-15T07:42:13;10.73;;;6.00;;
12675;SDS011;63820;65.654;21.944;2023-02-15T07:44:57;12.23;;;5.77;;
12675;SDS011;63820;65.654;21.944;2023-02-15T07:47:41;11.97;;;5.33;;
12675;SDS011;63820;65.654;21.944;2023-02-15T07:50:25;13.07;;;5.10;;
12675;SDS011;63820;65.654;21.944;2023-02-15T07:53:10;8.97;;;4.37;;
12675;SDS011;63820;65.654;21.944;2023-02-15T07:55:54;9.97;;;4.60;;
12675;SDS011;63820;65.654;21.944;2023-02-15T07:58:41;8.03;;;4.27;;
12675;SDS011;63820;65.654;21.944;2023-02-15T08:01:35;10.33;;;4.90;;
12675;SDS011;63820;65.654;21.944;2023-02-15T08:04:20;8.23;;;4.60;;
12675;SDS011;63820;65.654;21.944;2023-02-15T08:07:04;8.53;;;5.27;;
12675;SDS011;63820;65.654;21.944;2023-02-15T08:09:49;7.67;;;4.13;;
12675;SDS011;63820;65.654;21.944;2023-02-15T08:12:33;7.27;;;4.27;;
12675;SDS011;63820;65.654;21.944;2023-02-15T08:15:16;9.53;;;5.33;;
12675;SDS011;63820;65.654;21.944;2023-02-15T08:18:00;7.83;;;4.43;;
12675;SDS011;63820;65.654;21.944;2023-02-15T08:20:51;8.63;;;4.00;;
12675;SDS011;63820;65.654;21.944;2023-02-15T08:23:35;8.40;;;4.43;;
12675;SDS011;63820;65.654;21.944;2023-02-15T08:26:19;7.37;;;3.70;;
12675;SDS011;63820;65.654;21.944;2023-02-15T08:29:04;7.43;;;4.23;;
12675;SDS011;63820;65.654;21.944;2023-02-15T08:31:54;5.90;;;3.40;;
12675;SDS011;63820;65.654;21.944;2023-02-15T08:34:42;6.33;;;3.70;;
12675;SDS011;63820;65.654;21.944;2023-02-15T08:37:26;7.17;;;4.23;;
12675;SDS011;63820;65.654;21.944;2023-02-15T08:40:10;6.97;;;4.17;;
12675;SDS011;63820;65.654;21.944;2023-02-15T08:42:57;7.27;;;4.00;;
12675;SDS011;63820;65.654;21.944;2023-02-15T08:45:41;9.40;;;3.97;;
12675;SDS011;63820;65.654;21.944;2023-02-15T08:48:25;6.87;;;4.70;;
12675;SDS011;63820;65.654;21.944;2023-02-15T08:51:19;7.17;;;5.10;;
12675;SDS011;63820;65.654;21.944;2023-02-15T08:54:10;8.47;;;5.27;;
12675;SDS011;63820;65.654;21.944;2023-02-15T08:56:57;7.13;;;4.80;;
12675;SDS011;63820;65.654;21.944;2023-02-15T08:59:41;6.27;;;4.83;;
12675;SDS011;63820;65.654;21.944;2023-02-15T09:02:25;6.53;;;4.70;;
12675;SDS011;63820;65.654;21.944;2023-02-15T09:05:10;6.87;;;4.70;;
12675;SDS011;63820;65.654;21.944;2023-02-15T09:07:54;4.83;;;4.03;;
12675;SDS011;63820;65.654;21.944;2023-02-15T09:10:38;6.17;;;4.50;;
12675;SDS011;63820;65.654;21.944;2023-02-15T09:13:23;6.67;;;4.70;;
12675;SDS011;63820;65.654;21.944;2023-02-15T09:16:07;5.20;;;3.97;;
12675;SDS011;63820;65.654;21.944;2023-02-15T09:18:53;5.77;;;4.30;;
12675;SDS011;63820;65.654;21.944;2023-02-15T09:21:38;5.17;;;3.67;;
12675;SDS011;63820;65.654;21.944;2023-02-15T09:24:22;5.37;;;3.80;;
12675;SDS011;63820;65.654;21.944;2023-02-15T09:27:06;5.47;;;4.40;;
12675;SDS011;63820;65.654;21.944;2023-02-15T09:29:50;6.03;;;4.30;;
12675;SDS011;63820;65.654;21.944;2023-02-15T09:32:34;6.63;;;4.93;;
12675;SDS011;63820;65.654;21.944;2023-02-15T09:35:18;6.53;;;5.13;;
12675;SDS011;63820;65.654;21.944;2023-02-15T09:38:03;5.73;;;4.13;;
12675;SDS011;63820;65.654;21.944;2023-02-15T09:40:49;5.07;;;4.03;;
12675;SDS011;63820;65.654;21.944;2023-02-15T10:05:05;3.93;;;3.10;;
12675;SDS011;63820;65.654;21.944;2023-02-15T10:26:17;3.67;;;3.20;;
12675;SDS011;63820;65.654;21.944;2023-02-15T10:32:17;4.77;;;3.37;;
12675;SDS011;63820;65.654;21.944;2023-02-15T10:35:22;3.97;;;3.53;;
12675;SDS011;63820;65.654;21.944;2023-02-15T10:51:11;5.10;;;3.77;;
12675;SDS011;63820;65.654;21.944;2023-02-15T11:00:27;3.63;;;3.23;;
12675;SDS011;63820;65.654;21.944;2023-02-15T11:06:34;3.87;;;3.47;;
12675;SDS011;63820;65.654;21.944;2023-02-15T11:09:21;4.90;;;3.50;;
12675;SDS011;63820;65.654;21.944;2023-02-15T11:12:10;4.27;;;3.40;;
12675;SDS011;63820;65.654;21.944;2023-02-15T11:15:00;4.23;;;3.70;;
12675;SDS011;63820;65.654;21.944;2023-02-15T11:17:56;3.50;;;3.20;;
12675;SDS011;63820;65.654;21.944;2023-02-15T11:23:35;3.43;;;2.77;;
12675;SDS011;63820;65.654;21.944;2023-02-15T11:26:27;3.33;;;3.03;;
12675;SDS011;63820;65.654;21.944;2023-02-15T11:32:40;4.47;;;2.83;;
12675;SDS011;63820;65.654;21.944;2023-02-15T11:35:32;4.60;;;3.43;;
12675;SDS011;63820;65.654;21.944;2023-02-15T11:38:26;7.30;;;3.27;;
12675;SDS011;63820;65.654;21.944;2023-02-15T11:41:16;5.93;;;3.60;;
12675;SDS011;63820;65.654;21.944;2023-02-15T11:46:56;6.57;;;3.70;;
12675;SDS011;63820;65.654;21.944;2023-02-15T11:49:41;5.73;;;3.40;;
12675;SDS011;63820;65.654;21.944;2023-02-15T11:52:25;7.20;;;4.00;;
12675;SDS011;63820;65.654;21.944;2023-02-15T11:55:14;7.37;;;3.93;;
12675;SDS011;63820;65.654;21.944;2023-02-15T12:01:07;7.67;;;4.20;;
12675;SDS011;63820;65.654;21.944;2023-02-15T12:04:04;7.17;;;4.27;;
12675;SDS011;63820;65.654;21.944;2023-02-15T12:13:11;6.00;;;3.20;;
12675;SDS011;63820;65.654;21.944;2023-02-15T12:15:57;7.37;;;3.60;;
12675;SDS011;63820;65.654;21.944;2023-02-15T12:18:49;6.03;;;3.70;;
12675;SDS011;63820;65.654;21.944;2023-02-15T12:21:39;5.50;;;3.33;;
12675;SDS011;63820;65.654;21.944;2023-02-15T12:24:29;6.43;;;2.93;;
12675;SDS011;63820;65.654;21.944;2023-02-15T12:30:07;5.40;;;2.83;;
12675;SDS011;63820;65.654;21.944;2023-02-15T12:36:11;4.83;;;2.60;;
12675;SDS011;63820;65.654;21.944;2023-02-15T12:39:02;5.17;;;2.73;;
12675;SDS011;63820;65.654;21.944;2023-02-15T12:45:01;5.17;;;2.97;;
12675;SDS011;63820;65.654;21.944;2023-02-15T12:47:47;5.13;;;2.87;;
12675;SDS011;63820;65.654;21.944;2023-02-15T12:51:07;5.07;;;2.60;;
12675;SDS011;63820;65.654;21.944;2023-02-15T12:53:55;3.97;;;2.37;;
12675;SDS011;63820;65.654;21.944;2023-02-15T12:56:39;4.00;;;2.30;;
12675;SDS011;63820;65.654;21.944;2023-02-15T12:59:24;3.67;;;2.10;;
12675;SDS011;63820;65.654;21.944;2023-02-15T13:02:09;4.30;;;2.30;;
12675;SDS011;63820;65.654;21.944;2023-02-15T13:08:04;4.77;;;2.10;;
12675;SDS011;63820;65.654;21.944;2023-02-15T13:10:56;3.37;;;1.97;;
12675;SDS011;63820;65.654;21.944;2023-02-15T13:16:39;4.90;;;2.73;;
12675;SDS011;63820;65.654;21.944;2023-02-15T13:22:27;4.10;;;2.67;;
12675;SDS011;63820;65.654;21.944;2023-02-15T13:25:18;3.87;;;2.50;;
12675;SDS011;63820;65.654;21.944;2023-02-15T13:28:05;3.70;;;2.50;;
12675;SDS011;63820;65.654;21.944;2023-02-15T13:30:54;3.20;;;2.50;;
12675;SDS011;63820;65.654;21.944;2023-02-15T13:33:39;3.23;;;2.30;;
12675;SDS011;63820;65.654;21.944;2023-02-15T13:36:30;3.80;;;2.50;;
12675;SDS011;63820;65.654;21.944;2023-02-15T13:39:28;3.30;;;2.43;;
12675;SDS011;63820;65.654;21.944;2023-02-15T13:42:27;3.67;;;2.40;;
12675;SDS011;63820;65.654;21.944;2023-02-15T13:51:43;3.40;;;2.10;;
12675;SDS011;63820;65.654;21.944;2023-02-15T13:54:53;2.93;;;2.03;;
12675;SDS011;63820;65.654;21.944;2023-02-15T13:58:02;2.57;;;1.70;;
12675;SDS011;63820;65.654;21.944;2023-02-15T14:07:20;3.50;;;1.90;;
12675;SDS011;63820;65.654;21.944;2023-02-15T14:20:06;5.00;;;2.87;;
12675;SDS011;63820;65.654;21.944;2023-02-15T14:25:51;6.30;;;2.87;;
12675;SDS011;63820;65.654;21.944;2023-02-15T14:31:46;9.10;;;3.57;;
12675;SDS011;63820;65.654;21.944;2023-02-15T14:34:37;8.27;;;3.70;;
12675;SDS011;63820;65.654;21.944;2023-02-15T14:40:57;7.93;;;3.10;;
12675;SDS011;63820;65.654;21.944;2023-02-15T14:49:38;6.80;;;3.40;;
12675;SDS011;63820;65.654;21.944;2023-02-15T14:52:23;9.40;;;3.30;;
12675;SDS011;63820;65.654;21.944;2023-02-15T14:55:08;10.40;;;3.93;;
12675;SDS011;63820;65.654;21.944;2023-02-15T14:57:55;12.57;;;3.97;;
12675;SDS011;63820;65.654;21.944;2023-02-15T15:00:41;6.10;;;3.80;;
12675;SDS011;63820;65.654;21.944;2023-02-15T15:03:26;9.07;;;3.10;;
12675;SDS011;63820;65.654;21.944;2023-02-15T15:06:20;8.00;;;3.30;;
12675;SDS011;63820;65.654;21.944;2023-02-15T15:09:20;5.33;;;2.43;;
12675;SDS011;63820;65.654;21.944;2023-02-15T15:12:15;3.80;;;2.40;;
12675;SDS011;63820;65.654;21.944;2023-02-15T15:15:03;6.57;;;3.30;;
12675;SDS011;63820;65.654;21.944;2023-02-15T15:17:52;5.40;;;3.10;;
12675;SDS011;63820;65.654;21.944;2023-02-15T15:20:49;7.93;;;2.73;;
12675;SDS011;63820;65.654;21.944;2023-02-15T15:23:39;4.70;;;2.10;;
12675;SDS011;63820;65.654;21.944;2023-02-15T15:26:29;7.17;;;3.60;;
12675;SDS011;63820;65.654;21.944;2023-02-15T15:29:17;6.50;;;2.80;;
12675;SDS011;63820;65.654;21.944;2023-02-15T15:32:24;5.40;;;2.73;;
12675;SDS011;63820;65.654;21.944;2023-02-15T15:35:27;7.57;;;3.40;;
12675;SDS011;63820;65.654;21.944;2023-02-15T15:45:09;6.90;;;3.20;;
12675;SDS011;63820;65.654;21.944;2023-02-15T15:51:22;7.10;;;3.10;;
12675;SDS011;63820;65.654;21.944;2023-02-15T15:54:15;13.93;;;4.73;;
12675;SDS011;63820;65.654;21.944;2023-02-15T15:57:05;16.37;;;4.20;;
12675;SDS011;63820;65.654;21.944;2023-02-15T15:59:56;12.43;;;3.60;;
12675;SDS011;63820;65.654;21.944;2023-02-15T16:02:50;22.07;;;4.03;;
12675;SDS011;63820;65.654;21.944;2023-02-15T16:05:36;13.00;;;3.00;;
12675;SDS011;63820;65.654;21.944;2023-02-15T16:11:19;31.57;;;6.27;;
12675;SDS011;63820;65.654;21.944;2023-02-15T16:14:14;14.07;;;4.30;;
12675;SDS011;63820;65.654;21.944;2023-02-15T16:17:05;14.57;;;3.80;;
12675;SDS011;63820;65.654;21.944;2023-02-15T16:20:17;15.77;;;4.50;;
12675;SDS011;63820;65.654;21.944;2023-02-15T16:26:01;20.43;;;5.07;;
12675;SDS011;63820;65.654;21.944;2023-02-15T16:29:18;50.63;;;6.83;;
12675;SDS011;63820;65.654;21.944;2023-02-15T16:32:15;19.40;;;5.00;;
12675;SDS011;63820;65.654;21.944;2023-02-15T16:35:13;12.13;;;4.37;;
12675;SDS011;63820;65.654;21.944;2023-02-15T16:37:59;22.20;;;5.13;;
12675;SDS011;63820;65.654;21.944;2023-02-15T16:43:42;26.20;;;5.70;;
12675;SDS011;63820;65.654;21.944;2023-02-15T16:46:30;27.90;;;5.60;;
12675;SDS011;63820;65.654;21.944;2023-02-15T16:49:21;36.33;;;8.10;;
12675;SDS011;63820;65.654;21.944;2023-02-15T16:52:10;27.57;;;5.30;;
12675;SDS011;63820;65.654;21.944;2023-02-15T16:55:03;28.27;;;7.27;;
12675;SDS011;63820;65.654;21.944;2023-02-15T16:57:49;34.37;;;6.10;;
12675;SDS011;63820;65.654;21.944;2023-02-15T17:00:36;26.00;;;5.50;;
12675;SDS011;63820;65.654;21.944;2023-02-15T17:03:23;48.77;;;11.53;;
12675;SDS011;63820;65.654;21.944;2023-02-15T17:06:19;48.10;;;7.53;;
12675;SDS011;63820;65.654;21.944;2023-02-15T17:09:04;33.60;;;7.17;;
12675;SDS011;63820;65.654;21.944;2023-02-15T17:11:49;23.47;;;6.00;;
12675;SDS011;63820;65.654;21.944;2023-02-15T17:14:37;27.37;;;6.33;;
12675;SDS011;63820;65.654;21.944;2023-02-15T17:17:23;53.20;;;8.70;;
12675;SDS011;63820;65.654;21.944;2023-02-15T17:22:59;61.03;;;10.70;;
12675;SDS011;63820;65.654;21.944;2023-02-15T17:25:43;37.17;;;5.57;;
12675;SDS011;63820;65.654;21.944;2023-02-15T17:28:28;38.73;;;6.27;;
12675;SDS011;63820;65.654;21.944;2023-02-15T17:31:15;38.20;;;7.93;;
12675;SDS011;63820;65.654;21.944;2023-02-15T17:34:02;45.70;;;6.77;;
12675;SDS011;63820;65.654;21.944;2023-02-15T17:36:56;54.43;;;9.27;;
12675;SDS011;63820;65.654;21.944;2023-02-15T17:39:42;51.07;;;7.43;;
12675;SDS011;63820;65.654;21.944;2023-02-15T17:42:26;76.27;;;13.33;;
12675;SDS011;63820;65.654;21.944;2023-02-15T17:45:11;30.40;;;6.17;;
12675;SDS011;63820;65.654;21.944;2023-02-15T17:47:55;44.30;;;7.07;;
12675;SDS011;63820;65.654;21.944;2023-02-15T17:50:42;50.50;;;8.43;;
12675;SDS011;63820;65.654;21.944;2023-02-15T17:53:26;46.47;;;8.07;;
12675;SDS011;63820;65.654;21.944;2023-02-15T17:56:10;39.30;;;6.13;;
12675;SDS011;63820;65.654;21.944;2023-02-15T17:58:56;20.17;;;6.93;;
12675;SDS011;63820;65.654;21.944;2023-02-15T18:01:46;30.80;;;7.27;;
12675;SDS011;63820;65.654;21.944;2023-02-15T18:04:51;27.50;;;7.00;;
12675;SDS011;63820;65.654;21.944;2023-02-15T18:07:53;20.07;;;5.30;;
12675;SDS011;63820;65.654;21.944;2023-02-15T18:10:57;18.83;;;5.63;;
12675;SDS011;63820;65.654;21.944;2023-02-15T18:14:00;14.73;;;4.10;;
12675;SDS011;63820;65.654;21.944;2023-02-15T18:16:45;17.70;;;4.60;;
12675;SDS011;63820;65.654;21.944;2023-02-15T18:19:29;17.10;;;5.10;;
12675;SDS011;63820;65.654;21.944;2023-02-15T18:22:15;14.20;;;4.63;;
12675;SDS011;63820;65.654;21.944;2023-02-15T18:25:01;14.87;;;5.60;;
12675;SDS011;63820;65.654;21.944;2023-02-15T18:27:45;28.10;;;6.87;;
12675;SDS011;63820;65.654;21.944;2023-02-15T18:30:30;19.80;;;6.63;;
12675;SDS011;63820;65.654;21.944;2023-02-15T18:33:20;17.47;;;7.27;;
12675;SDS011;63820;65.654;21.944;2023-02-15T18:36:23;23.53;;;6.03;;
12675;SDS011;63820;65.654;21.944;2023-02-15T18:42:23;20.20;;;6.20;;
12675;SDS011;63820;65.654;21.944;2023-02-15T18:45:18;31.37;;;8.13;;
12675;SDS011;63820;65.654;21.944;2023-02-15T18:48:11;21.53;;;6.33;;
12675;SDS011;63820;65.654;21.944;2023-02-15T18:50:56;18.00;;;6.50;;
12675;SDS011;63820;65.654;21.944;2023-02-15T18:53:41;19.30;;;6.33;;
12675;SDS011;63820;65.654;21.944;2023-02-15T18:56:25;17.77;;;6.17;;
12675;SDS011;63820;65.654;21.944;2023-02-15T18:59:19;20.77;;;6.87;;
12675;SDS011;63820;65.654;21.944;2023-02-15T19:02:10;26.10;;;7.70;;
12675;SDS011;63820;65.654;21.944;2023-02-15T19:04:58;21.37;;;7.30;;
12675;SDS011;63820;65.654;21.944;2023-02-15T19:07:42;20.43;;;7.30;;
12675;SDS011;63820;65.654;21.944;2023-02-15T19:10:31;16.27;;;6.43;;
12675;SDS011;63820;65.654;21.944;2023-02-15T19:13:16;21.50;;;7.10;;
12675;SDS011;63820;65.654;21.944;2023-02-15T19:16:00;20.27;;;8.27;;
12675;SDS011;63820;65.654;21.944;2023-02-15T19:18:44;31.17;;;10.63;;
12675;SDS011;63820;65.654;21.944;2023-02-15T19:21:29;37.50;;;9.93;;
12675;SDS011;63820;65.654;21.944;2023-02-15T19:24:17;29.57;;;8.20;;
12675;SDS011;63820;65.654;21.944;2023-02-15T19:27:16;29.83;;;7.70;;
12675;SDS011;63820;65.654;21.944;2023-02-15T19:30:03;30.50;;;7.17;;
12675;SDS011;63820;65.654;21.944;2023-02-15T19:32:57;34.67;;;9.10;;
12675;SDS011;63820;65.654;21.944;2023-02-15T19:35:41;23.13;;;7.77;;
12675;SDS011;63820;65.654;21.944;2023-02-15T19:38:29;20.37;;;7.47;;
12675;SDS011;63820;65.654;21.944;2023-02-15T19:41:19;25.70;;;8.10;;
12675;SDS011;63820;65.654;21.944;2023-02-15T19:44:08;20.10;;;7.30;;
12675;SDS011;63820;65.654;21.944;2023-02-15T19:46:52;21.73;;;8.17;;
12675;SDS011;63820;65.654;21.944;2023-02-15T19:49:37;24.27;;;7.03;;
12675;SDS011;63820;65.654;21.944;2023-02-15T19:52:21;21.50;;;8.33;;
12675;SDS011;63820;65.654;21.944;2023-02-15T19:55:14;24.53;;;6.60;;
12675;SDS011;63820;65.654;21.944;2023-02-15T19:58:01;25.80;;;7.23;;
12675;SDS011;63820;65.654;21.944;2023-02-15T20:00:47;17.00;;;5.60;;